createdAt,value
2016-08-18T14:50:54.591Z,28.00
2016-08-18T14:51:55.247Z,28.00
2016-08-18T14:52:55.630Z,28.00
2016-08-18T14:53:56.165Z,28.00
2016-08-18T14:54:56.831Z,28.00
2016-08-18T14:55:57.195Z,28.00
2016-08-18T14:56:57.874Z,28.00
2016-08-18T14:57:58.128Z,28.00
2016-08-18T14:58:58.671Z,27.00
2016-08-18T14:59:59.347Z,27.00
2016-08-18T15:00:59.882Z,27.00
2016-08-18T15:02:00.508Z,27.00
2016-08-18T15:03:01.186Z,27.00
2016-08-18T15:04:01.411Z,27.00
2016-08-18T15:05:02.387Z,27.00
2016-08-18T15:06:02.343Z,27.00
2016-08-18T15:07:02.992Z,27.00
2016-08-18T15:08:03.662Z,27.00
2016-08-18T15:09:04.367Z,27.00
2016-08-18T15:10:04.859Z,27.00
2016-08-18T15:11:05.111Z,26.00
2016-08-18T15:12:05.491Z,26.00
2016-08-18T15:13:05.982Z,26.00
2016-08-18T15:14:06.806Z,26.00
2016-08-18T15:15:07.058Z,26.00
2016-08-18T15:16:07.727Z,26.00
2016-08-18T15:17:08.130Z,26.00
2016-08-18T15:18:08.780Z,25.00
2016-08-18T15:19:09.448Z,25.00
2016-08-18T15:20:09.810Z,25.00
2016-08-18T15:21:10.632Z,25.00
2016-08-18T15:22:11.019Z,24.00
2016-08-18T15:23:11.420Z,24.00
2016-08-18T15:24:12.215Z,24.00
2016-08-18T15:25:12.460Z,25.00
2016-08-18T15:26:12.819Z,25.00
2016-08-18T15:27:14.135Z,24.00
2016-08-18T15:28:14.180Z,24.00
2016-08-18T15:29:14.856Z,24.00
2016-08-18T15:30:15.082Z,24.00
2016-08-18T15:31:15.919Z,24.00
2016-08-18T15:32:15.996Z,24.00
2016-08-18T15:33:16.542Z,24.00
2016-08-18T15:34:17.076Z,24.00
2016-08-18T15:35:17.619Z,24.00
2016-08-18T15:36:18.156Z,24.00
2016-08-18T15:37:18.694Z,24.00
2016-08-18T15:38:19.233Z,24.00
2016-08-18T15:39:19.944Z,23.00
2016-08-18T15:40:20.312Z,23.00
2016-08-18T15:41:20.854Z,23.00
2016-08-18T15:42:21.394Z,23.00
2016-08-18T15:43:22.083Z,23.00
2016-08-18T15:44:22.472Z,23.00
2016-08-18T15:45:23.161Z,23.00
2016-08-18T15:46:23.550Z,23.00
2016-08-18T15:47:24.092Z,23.00
2016-08-18T15:48:24.625Z,22.00
2016-08-18T15:49:25.168Z,22.00
2016-08-18T15:50:25.708Z,22.00
2016-08-18T15:51:26.239Z,22.00
2016-08-18T15:52:26.784Z,22.00
2016-08-18T15:53:27.319Z,22.00
2016-08-18T15:54:27.873Z,22.00
2016-08-18T15:55:28.400Z,22.00
2016-08-18T15:56:28.941Z,21.00
2016-08-18T15:57:29.471Z,21.00
2016-08-18T15:58:31.359Z,21.00
2016-08-18T15:59:30.587Z,21.00
2016-08-18T16:00:31.515Z,21.00
2016-08-18T16:01:31.739Z,21.00
2016-08-18T16:02:32.301Z,21.00
2016-08-18T16:03:32.955Z,21.00
2016-08-18T16:04:33.314Z,21.00
2016-08-18T16:05:33.982Z,21.00
2016-08-18T16:06:34.365Z,21.00
2016-08-18T16:07:34.742Z,21.00
2016-08-18T16:08:35.707Z,20.00
2016-08-18T16:09:35.931Z,20.00
2016-08-18T16:10:36.460Z,20.00
2016-08-18T16:11:37.032Z,20.00
2016-08-18T16:12:37.507Z,20.00
2016-08-18T16:13:38.035Z,20.00
2016-08-18T16:14:38.703Z,20.00
2016-08-18T16:15:39.109Z,20.00
2016-08-18T16:16:39.747Z,19.00
2016-08-18T16:17:40.161Z,19.00
2016-08-18T16:18:40.527Z,19.00
2016-08-18T16:19:41.318Z,19.00
2016-08-18T16:20:41.708Z,19.00
2016-08-18T16:21:42.668Z,19.00
2016-08-18T16:22:42.602Z,19.00
2016-08-18T16:23:43.274Z,19.00
2016-08-18T16:24:44.121Z,19.00
2016-08-18T16:25:44.779Z,19.00
2016-08-18T16:26:44.849Z,18.00
2016-08-18T16:27:45.813Z,18.00
2016-08-18T16:28:45.902Z,18.00
2016-08-18T16:29:46.417Z,18.00
2016-08-18T16:30:46.975Z,18.00
2016-08-18T16:31:47.455Z,18.00
2016-08-18T16:32:47.975Z,18.00
2016-08-18T16:33:48.647Z,18.00
2016-08-18T16:34:49.028Z,18.00
2016-08-18T16:35:49.745Z,17.00
2016-08-18T16:36:50.399Z,17.00
2016-08-18T16:37:50.761Z,17.00
2016-08-18T16:38:51.336Z,17.00
2016-08-18T16:39:52.015Z,17.00
2016-08-18T16:40:52.038Z,17.00
2016-08-18T16:41:52.850Z,17.00
2016-08-18T16:42:53.572Z,17.00
2016-08-18T16:43:54.052Z,16.00
2016-08-18T16:44:54.125Z,16.00
2016-08-18T16:45:54.812Z,16.00
2016-08-18T16:46:55.337Z,16.00
2016-08-18T16:47:55.706Z,16.00
2016-08-18T16:48:56.273Z,16.00
2016-08-18T16:49:56.800Z,16.00
2016-08-18T16:50:57.621Z,16.00
2016-08-18T16:51:58.159Z,15.00
2016-08-18T16:52:58.523Z,15.00
2016-08-18T16:53:59.062Z,15.00
2016-08-18T16:54:59.450Z,15.00
2016-08-18T16:55:59.990Z,15.00
2016-08-18T16:57:00.530Z,15.00
2016-08-18T16:58:01.069Z,15.00
2016-08-18T16:59:01.622Z,15.00
2016-08-18T17:00:02.147Z,15.00
2016-08-18T17:01:02.690Z,14.00
2016-08-18T17:02:03.856Z,14.00
2016-08-18T17:03:03.907Z,14.00
2016-08-18T17:04:04.878Z,14.00
2016-08-18T17:05:04.839Z,14.00
2016-08-18T17:06:05.361Z,14.00
2016-08-18T17:07:05.895Z,14.00
2016-08-18T17:08:06.439Z,14.00
2016-08-18T17:09:06.970Z,13.00
2016-08-18T17:10:07.511Z,13.00
2016-08-18T17:11:08.050Z,13.00
2016-08-18T17:12:08.594Z,13.00
2016-08-18T17:13:09.136Z,13.00
2016-08-18T17:14:09.678Z,13.00
2016-08-18T17:15:10.374Z,13.00
2016-08-18T17:16:10.764Z,13.00
2016-08-18T17:17:11.297Z,13.00
2016-08-18T17:18:11.841Z,12.00
2016-08-18T17:19:12.375Z,12.00
2016-08-18T17:20:12.930Z,12.00
2016-08-18T17:21:13.450Z,12.00
2016-08-18T17:22:13.993Z,12.00
2016-08-18T17:23:14.527Z,11.00
2016-08-18T17:24:15.214Z,11.00
2016-08-18T17:25:15.602Z,11.00
2016-08-18T17:26:16.145Z,11.00
2016-08-18T17:27:16.682Z,11.00
2016-08-18T17:28:17.258Z,11.00
2016-08-18T17:29:17.767Z,11.00
2016-08-18T17:30:18.303Z,11.00
2016-08-18T17:31:18.837Z,11.00
2016-08-18T17:32:19.384Z,11.00
2016-08-18T17:33:19.915Z,10.00
2016-08-18T17:34:22.407Z,10.00
2016-08-18T17:35:20.993Z,10.00
2016-08-18T17:36:21.535Z,10.00
2016-08-18T17:37:22.071Z,10.00
2016-08-18T17:38:22.761Z,10.00
2016-08-18T17:39:23.302Z,9.00
2016-08-18T17:40:23.859Z,9.00
2016-08-18T17:41:24.383Z,9.00
2016-08-18T17:42:24.740Z,9.00
2016-08-18T17:43:25.244Z,9.00
2016-08-18T17:44:25.783Z,8.00
2016-08-18T17:45:26.759Z,8.00
2016-08-18T17:46:26.839Z,8.00
2016-08-18T17:47:27.381Z,8.00
2016-08-18T17:48:27.927Z,8.00
2016-08-18T17:49:28.468Z,8.00
2016-08-18T17:50:29.007Z,8.00
2016-08-18T17:51:29.548Z,7.00
2016-08-18T17:52:30.239Z,6.00
2016-08-18T17:53:30.627Z,4.00
2016-08-18T17:54:31.170Z,3.00
2016-08-18T17:55:31.709Z,3.00
2016-08-18T17:56:32.246Z,3.00
2016-08-18T17:57:32.785Z,3.00
2016-08-18T17:58:33.321Z,3.00
2016-08-18T17:59:33.865Z,3.00
2016-08-18T18:00:34.404Z,3.00
2016-08-18T18:01:34.940Z,9.00
2016-08-18T18:02:35.482Z,3.00
2016-08-18T18:03:36.186Z,3.00
2016-08-18T18:04:36.565Z,2.00
2016-08-18T18:05:37.098Z,2.00
2016-08-18T18:06:37.637Z,2.00
2016-08-18T18:07:38.174Z,2.00
2016-08-18T18:08:38.712Z,9.00
2016-08-18T18:09:39.256Z,2.00
2016-08-18T18:10:39.799Z,2.00
2016-08-18T18:11:40.333Z,2.00
2016-08-18T18:12:40.881Z,2.00
2016-08-18T18:13:41.415Z,2.00
2016-08-18T18:14:41.957Z,2.00
2016-08-18T18:15:42.496Z,2.00
2016-08-18T18:16:43.037Z,2.00
2016-08-18T18:17:43.582Z,2.00
2016-08-18T18:18:44.119Z,2.00
2016-08-18T18:19:46.461Z,1.00
2016-08-18T18:20:45.346Z,1.00
2016-08-18T18:21:45.738Z,1.00
2016-08-18T18:22:46.284Z,1.00
2016-08-18T18:23:46.824Z,1.00
2016-08-18T18:24:47.364Z,9.00
2016-08-18T18:25:47.912Z,1.00
2016-08-18T18:26:48.455Z,1.00
2016-08-18T18:27:48.996Z,1.00
2016-08-18T18:28:49.535Z,1.00
2016-08-18T18:29:50.079Z,1.00
2016-08-18T18:30:50.621Z,1.00
2016-08-18T18:31:51.158Z,0.00
2016-08-18T18:32:51.701Z,0.00
2016-08-18T18:33:52.260Z,0.00
2016-08-18T18:34:52.787Z,0.00
2016-08-18T18:35:53.328Z,0.00
2016-08-18T18:36:53.863Z,0.00
2016-08-18T18:37:54.400Z,0.00
2016-08-18T18:38:54.940Z,0.00
2016-08-18T18:39:55.480Z,0.00
2016-08-18T18:40:56.046Z,0.00
2016-08-18T18:41:56.568Z,0.00
2016-08-18T18:42:57.103Z,0.00
2016-08-18T18:43:57.643Z,0.00
2016-08-18T18:44:58.186Z,0.00
2016-08-18T18:45:58.724Z,0.00
2016-08-18T18:46:59.266Z,0.00
2016-08-18T18:47:59.805Z,0.00
2016-08-18T18:49:00.347Z,0.00
2016-08-18T18:50:00.884Z,2.00
2016-08-18T18:51:01.443Z,0.00
2016-08-18T18:52:02.110Z,0.00
2016-08-18T18:53:02.513Z,0.00
2016-08-18T18:54:03.077Z,0.00
2016-08-18T18:55:03.589Z,0.00
2016-08-18T18:56:04.129Z,0.00
2016-08-18T18:57:04.700Z,0.00
2016-08-18T18:58:05.208Z,0.00
2016-08-18T18:59:05.747Z,0.00
2016-08-18T19:00:06.443Z,0.00
2016-08-18T19:01:06.992Z,0.00
2016-08-18T19:02:07.356Z,0.00
2016-08-18T19:03:07.890Z,0.00
2016-08-18T19:04:08.564Z,0.00
2016-08-18T19:05:09.275Z,0.00
2016-08-18T19:06:09.794Z,0.00
2016-08-18T19:07:10.281Z,0.00
2016-08-18T19:08:10.700Z,0.00
2016-08-18T19:09:11.240Z,0.00
2016-08-18T19:10:11.587Z,0.00
2016-08-18T19:11:12.397Z,0.00
2016-08-18T19:12:12.637Z,0.00
2016-08-18T19:13:13.289Z,0.00
2016-08-18T19:14:13.826Z,0.00
2016-08-18T19:15:14.197Z,0.00
2016-08-18T19:16:14.735Z,0.00
2016-08-18T19:17:15.276Z,0.00
2016-08-18T19:18:15.819Z,0.00
2016-08-18T19:19:16.355Z,0.00
2016-08-18T19:20:16.905Z,0.00
2016-08-18T19:21:17.433Z,0.00
2016-08-18T19:22:17.975Z,0.00
2016-08-18T19:23:18.516Z,0.00
2016-08-18T19:24:19.055Z,0.00
2016-08-18T19:25:19.599Z,0.00
2016-08-18T19:26:20.136Z,0.00
2016-08-18T19:27:20.671Z,0.00
2016-08-18T19:28:21.219Z,0.00
2016-08-18T19:29:21.749Z,0.00
2016-08-18T19:30:22.297Z,0.00
2016-08-18T19:31:22.843Z,0.00
2016-08-18T19:32:23.378Z,0.00
2016-08-18T19:33:23.940Z,0.00
2016-08-18T19:34:24.486Z,0.00
2016-08-18T19:35:25.005Z,0.00
2016-08-18T19:36:25.543Z,0.00
2016-08-18T19:37:26.105Z,0.00
2016-08-18T19:38:26.634Z,0.00
2016-08-18T19:39:27.173Z,0.00
2016-08-18T19:40:27.717Z,0.00
2016-08-18T19:41:28.274Z,0.00
2016-08-18T19:42:28.812Z,0.00
2016-08-18T19:43:29.340Z,0.00
2016-08-18T19:44:29.876Z,0.00
2016-08-18T19:45:30.417Z,0.00
2016-08-18T19:46:30.960Z,0.00
2016-08-18T19:47:31.501Z,0.00
2016-08-18T19:48:32.063Z,0.00
2016-08-18T19:49:32.580Z,0.00
2016-08-18T19:50:33.120Z,0.00
2016-08-18T19:51:33.660Z,0.00
2016-08-18T19:52:34.223Z,0.00
2016-08-18T19:53:34.740Z,0.00
2016-08-18T19:54:35.283Z,0.00
2016-08-18T19:55:35.842Z,0.00
2016-08-18T19:56:36.514Z,0.00
2016-08-18T19:57:36.907Z,0.00
2016-08-18T19:58:37.446Z,0.00
2016-08-18T19:59:37.986Z,0.00
2016-08-18T20:00:38.527Z,0.00
2016-08-18T20:01:39.081Z,0.00
2016-08-18T20:02:39.607Z,0.00
2016-08-18T20:03:40.147Z,0.00
2016-08-18T20:04:40.689Z,0.00
2016-08-18T20:05:41.231Z,0.00
2016-08-18T20:06:41.768Z,0.00
2016-08-18T20:07:42.304Z,0.00
2016-08-18T20:08:42.845Z,0.00
2016-08-18T20:09:43.391Z,0.00
2016-08-18T20:10:43.928Z,0.00
2016-08-18T20:11:44.476Z,0.00
2016-08-18T20:12:45.011Z,0.00
2016-08-18T20:13:45.554Z,0.00
2016-08-18T20:14:46.108Z,0.00
2016-08-18T20:15:46.647Z,0.00
2016-08-18T20:16:47.190Z,0.00
2016-08-18T20:17:47.730Z,0.00
2016-08-18T20:18:48.417Z,0.00
2016-08-18T20:19:48.805Z,0.00
2016-08-18T20:20:49.356Z,0.00
2016-08-18T20:21:49.890Z,0.00
2016-08-18T20:22:50.429Z,0.00
2016-08-18T20:23:50.972Z,0.00
2016-08-18T20:24:51.508Z,0.00
2016-08-18T20:25:52.046Z,0.00
2016-08-18T20:26:52.737Z,0.00
2016-08-18T20:27:53.124Z,0.00
2016-08-18T20:28:53.668Z,0.00
2016-08-18T20:29:54.217Z,0.00
2016-08-18T20:30:54.779Z,0.00
2016-08-18T20:31:55.291Z,0.00
2016-08-18T20:32:55.828Z,0.00
2016-08-18T20:33:56.371Z,0.00
2016-08-18T20:34:56.940Z,0.00
2016-08-18T20:35:57.461Z,0.00
2016-08-18T20:36:57.990Z,0.00
2016-08-18T20:37:58.531Z,0.00
2016-08-18T20:38:59.068Z,0.00
2016-08-18T20:39:59.613Z,0.00
2016-08-18T20:41:00.151Z,0.00
2016-08-18T20:42:00.691Z,0.00
2016-08-18T20:43:01.245Z,0.00
2016-08-18T20:44:01.787Z,0.00
2016-08-18T20:45:02.463Z,0.00
2016-08-18T20:46:02.855Z,0.00
2016-08-18T20:47:03.393Z,0.00
2016-08-18T20:48:03.938Z,0.00
2016-08-18T20:49:04.475Z,0.00
2016-08-18T20:50:05.030Z,0.00
2016-08-18T20:51:05.565Z,0.00
2016-08-18T20:52:06.110Z,0.00
2016-08-18T20:53:06.799Z,0.00
2016-08-18T20:54:07.218Z,0.00
2016-08-18T20:55:07.729Z,0.00
2016-08-18T20:56:08.265Z,0.00
2016-08-18T20:57:08.809Z,0.00
2016-08-18T20:58:09.354Z,0.00
2016-08-18T20:59:09.890Z,0.00
2016-08-18T21:00:10.432Z,0.00
2016-08-18T21:01:11.121Z,0.00
2016-08-18T21:02:11.659Z,0.00
2016-08-18T21:03:12.052Z,0.00
2016-08-18T21:04:12.585Z,0.00
2016-08-18T21:05:13.127Z,0.00
2016-08-18T21:06:13.669Z,0.00
2016-08-18T21:07:14.362Z,0.00
2016-08-18T21:08:14.755Z,0.00
2016-08-18T21:09:15.436Z,0.00
2016-08-18T21:10:15.836Z,0.00
2016-08-18T21:11:16.366Z,0.00
2016-08-18T21:12:17.206Z,0.00
2016-08-18T21:13:17.469Z,0.00
2016-08-18T21:14:17.993Z,0.00
2016-08-18T21:15:18.534Z,0.00
2016-08-18T21:16:19.071Z,0.00
2016-08-18T21:17:19.616Z,0.00
2016-08-18T21:18:20.153Z,0.00
2016-08-18T21:19:20.694Z,0.00
2016-08-18T21:20:21.232Z,0.00
2016-08-18T21:21:21.774Z,0.00
2016-08-18T21:22:22.314Z,0.00
2016-08-18T21:23:22.851Z,0.00
2016-08-18T21:24:23.393Z,0.00
2016-08-18T21:25:23.933Z,0.00
2016-08-18T21:26:24.480Z,0.00
2016-08-18T21:27:25.023Z,0.00
2016-08-18T21:28:25.598Z,0.00
2016-08-18T21:29:26.108Z,0.00
2016-08-18T21:30:26.646Z,0.00
2016-08-18T21:31:27.185Z,0.00
2016-08-18T21:32:27.727Z,0.00
2016-08-18T21:33:28.266Z,0.00
2016-08-18T21:34:28.812Z,0.00
2016-08-18T21:35:29.506Z,0.00
2016-08-18T21:36:29.889Z,0.00
2016-08-18T21:37:30.438Z,0.00
2016-08-18T21:38:30.969Z,0.00
2016-08-18T21:39:31.511Z,0.00
2016-08-18T21:40:32.047Z,0.00
2016-08-18T21:41:32.617Z,0.00
2016-08-18T21:42:33.125Z,0.00
2016-08-18T21:43:33.667Z,0.00
2016-08-18T21:44:34.213Z,0.00
2016-08-18T21:45:34.750Z,0.00
2016-08-18T21:46:35.293Z,0.00
2016-08-18T21:47:35.847Z,0.00
2016-08-18T21:48:36.377Z,0.00
2016-08-18T21:49:36.914Z,0.00
2016-08-18T21:50:37.454Z,0.00
2016-08-18T21:51:37.991Z,0.00
2016-08-18T21:52:38.553Z,0.00
2016-08-18T21:53:39.067Z,0.00
2016-08-18T21:54:39.610Z,0.00
2016-08-18T21:55:40.148Z,0.00
2016-08-18T21:56:40.691Z,0.00
2016-08-18T21:57:41.228Z,0.00
2016-08-18T21:58:41.769Z,0.00
2016-08-18T21:59:42.310Z,0.00
2016-08-18T22:00:42.856Z,0.00
2016-08-18T22:01:43.399Z,0.00
2016-08-18T22:02:43.959Z,0.00
2016-08-18T22:03:44.477Z,0.00
2016-08-18T22:04:45.022Z,0.00
2016-08-18T22:05:45.561Z,0.00
2016-08-18T22:06:46.108Z,0.00
2016-08-18T22:07:46.640Z,0.00
2016-08-18T22:08:47.179Z,0.00
2016-08-18T22:09:47.718Z,0.00
2016-08-18T22:10:48.255Z,0.00
2016-08-18T22:11:48.801Z,0.00
2016-08-18T22:12:49.366Z,0.00
2016-08-18T22:13:49.883Z,0.00
2016-08-18T22:14:50.421Z,0.00
2016-08-18T22:15:50.959Z,0.00
2016-08-18T22:16:51.499Z,0.00
2016-08-18T22:17:52.040Z,0.00
2016-08-18T22:18:52.581Z,0.00
2016-08-18T22:19:53.119Z,0.00
2016-08-18T22:20:53.658Z,0.00
2016-08-18T22:21:54.207Z,0.00
2016-08-18T22:22:54.739Z,0.00
2016-08-18T22:23:55.275Z,0.00
2016-08-18T22:24:55.819Z,0.00
2016-08-18T22:25:56.362Z,0.00
2016-08-18T22:26:56.902Z,0.00
2016-08-18T22:27:57.453Z,0.00
2016-08-18T22:28:57.979Z,0.00
2016-08-18T22:29:58.524Z,0.00
2016-08-18T22:30:59.056Z,0.00
2016-08-18T22:31:59.617Z,0.00
2016-08-18T22:33:00.136Z,0.00
2016-08-18T22:34:00.676Z,0.00
2016-08-18T22:35:01.216Z,0.00
2016-08-18T22:36:01.763Z,0.00
2016-08-18T22:37:02.304Z,0.00
2016-08-18T22:38:02.836Z,0.00
2016-08-18T22:39:03.530Z,0.00
2016-08-18T22:40:03.927Z,0.00
2016-08-18T22:41:04.474Z,0.00
2016-08-18T22:42:05.011Z,0.00
2016-08-18T22:43:05.553Z,0.00
2016-08-18T22:44:06.090Z,0.00
2016-08-18T22:45:06.634Z,0.00
2016-08-18T22:46:07.195Z,0.00
2016-08-18T22:47:07.864Z,0.00
2016-08-18T22:48:08.254Z,0.00
2016-08-18T22:49:08.791Z,0.00
2016-08-18T22:50:09.332Z,0.00
2016-08-18T22:51:09.871Z,0.00
2016-08-18T22:52:10.410Z,0.00
2016-08-18T22:53:10.952Z,0.00
2016-08-18T22:54:11.491Z,0.00
2016-08-18T22:55:12.038Z,0.00
2016-08-18T22:56:12.574Z,0.00
2016-08-18T22:57:13.115Z,0.00
2016-08-18T22:58:13.653Z,0.00
2016-08-18T22:59:14.192Z,0.00
2016-08-18T23:00:14.740Z,0.00
2016-08-18T23:01:15.283Z,0.00
2016-08-18T23:02:15.813Z,0.00
2016-08-18T23:03:16.504Z,0.00
2016-08-18T23:04:16.891Z,0.00
2016-08-18T23:05:17.583Z,0.00
2016-08-18T23:06:17.973Z,0.00
2016-08-18T23:07:18.510Z,0.00
2016-08-18T23:08:19.081Z,0.00
2016-08-18T23:09:19.594Z,0.00
2016-08-18T23:10:20.152Z,0.00
2016-08-18T23:11:20.687Z,0.00
2016-08-18T23:12:21.210Z,0.00
2016-08-18T23:13:21.752Z,0.00
2016-08-18T23:14:22.293Z,0.00
2016-08-18T23:15:22.830Z,0.00
2016-08-18T23:16:23.379Z,0.00
2016-08-18T23:17:24.071Z,0.00
2016-08-18T23:18:24.466Z,0.00
2016-08-18T23:19:25.039Z,0.00
2016-08-18T23:20:25.543Z,0.00
2016-08-18T23:21:26.235Z,0.00
2016-08-18T23:22:26.617Z,0.00
2016-08-18T23:23:27.160Z,0.00
2016-08-18T23:24:27.698Z,0.00
2016-08-18T23:25:28.244Z,0.00
2016-08-18T23:26:28.774Z,0.00
2016-08-18T23:27:29.312Z,0.00
2016-08-18T23:28:29.851Z,0.00
2016-08-18T23:29:30.539Z,0.00
2016-08-18T23:30:30.928Z,0.00
2016-08-18T23:31:31.470Z,0.00
2016-08-18T23:32:32.009Z,0.00
2016-08-18T23:33:32.548Z,0.00
2016-08-18T23:34:33.277Z,0.00
2016-08-18T23:35:33.775Z,0.00
2016-08-18T23:36:34.173Z,0.00
2016-08-18T23:37:34.711Z,0.00
2016-08-18T23:38:35.251Z,0.00
2016-08-18T23:39:35.787Z,0.00
2016-08-18T23:40:36.344Z,0.00
2016-08-18T23:41:36.868Z,0.00
2016-08-18T23:42:37.405Z,0.00
2016-08-18T23:43:38.103Z,0.00
2016-08-18T23:44:38.506Z,0.00
2016-08-18T23:45:39.024Z,0.00
2016-08-18T23:46:39.564Z,0.00
2016-08-18T23:47:40.104Z,0.00
2016-08-18T23:48:40.651Z,0.00
2016-08-18T23:49:41.183Z,0.00
2016-08-18T23:50:42.630Z,0.00
2016-08-18T23:51:42.414Z,0.00
2016-08-18T23:52:42.808Z,0.00
2016-08-18T23:53:43.348Z,0.00
2016-08-18T23:54:43.894Z,0.00
2016-08-18T23:55:44.440Z,0.00
2016-08-18T23:56:44.976Z,0.00
2016-08-18T23:57:45.517Z,0.00
2016-08-18T23:58:46.066Z,0.00
2016-08-18T23:59:46.596Z,0.00
